TAF Text Data
IDs:
Format:
Raw Decoded Include METAR

Data at: 0238 UTC 25 Jan 2020

KSLN 250232Z 27005KT 10SM FEW012 M02/M04 A3010 RMK AO2 T10171039

KSLN 242329Z 2500/2524 32007KT P6SM BKN015
  TEMPO 2502/2504 SCT015
  FM250400 VRB03KT P6SM SCT150
  FM251100 VRB03KT P6SM BKN120
  FM251800 17006KT P6SM SCT120


KATW 250145Z 01008KT 2SM -SN OVC003 00/00 A2981

KATW 250106Z 2501/2524 04008KT 2SM -SNDZ BR OVC003
  FM251000 35004KT 2SM -DZ BR OVC003
  FM251600 01007KT 4SM -SN BR OVC004
  FM252100 31005KT 4SM -DZ OVC005